Kuzey Ekim — TCA3365 — position and weather

sailwx.info

Track history (hours):
 
Tides and Currents Weather Stations Pressure Air Temp Water Temp Dewpoint Dewpoint Depression Visibility Wind Speed Wind Dir Waves Ship Positions

Kuzey Ekim

Last reported at 2017-Oct-18 19:59 UTC. Time now 2017-Oct-18 20:31 UTC.
Position N 36°48' E 030°36'.

Length 150 m; draft 6 m.

Type: Tanker. MMSI: 271044024.

Date/timePositionNaut miles runAvg speedWind from/ knotsBaromVisibWave heightAir tempDewpointWater temp
2017-Oct-18 19:59N 36°48' E 030°36'0 0.0
2017-Oct-18 19:29N 36°48' E 030°36'0 0.0
2017-Oct-18 18:59N 36°48' E 030°36'0 0.0
2017-Oct-18 18:29N 36°48' E 030°36'0 0.0
2017-Oct-18 17:59N 36°48' E 030°36'0 0.0
2017-Oct-18 17:29N 36°48' E 030°36'0 0.0
2017-Oct-18 16:59N 36°48' E 030°36'0 0.0
2017-Oct-18 16:29N 36°48' E 030°36'0 0.0
2017-Oct-18 15:59N 36°48' E 030°36'0 0.0
2017-Oct-18 15:29N 36°48' E 030°36'0 0.0
2017-Oct-18 14:59N 36°48' E 030°36'0 0.0
2017-Oct-18 13:59N 36°48' E 030°36'0 0.0
2017-Oct-18 13:29N 36°48' E 030°36'0 0.0
2017-Oct-18 12:59N 36°48' E 030°36'0 0.0
2017-Oct-18 12:29N 36°48' E 030°36'0 0.0
2017-Oct-18 11:59N 36°48' E 030°36'0 0.0
2017-Oct-18 11:29N 36°48' E 030°36'0 0.0
2017-Oct-18 10:59N 36°48' E 030°36'0 0.0
2017-Oct-18 10:29N 36°48' E 030°36'0 0.0
2017-Oct-18 09:59N 36°48' E 030°36'0 0.0
2017-Oct-18 09:29N 36°48' E 030°36'0 0.0
2017-Oct-18 08:59N 36°48' E 030°36'0 0.0
2017-Oct-18 08:29N 36°48' E 030°36'0 0.0
2017-Oct-18 07:59N 36°48' E 030°36'0 0.0
2017-Oct-18 07:29N 36°48' E 030°36'0 0.0
2017-Oct-18 06:59N 36°48' E 030°36'0 0.0
2017-Oct-18 06:29N 36°48' E 030°36'0 0.0
2017-Oct-18 05:59N 36°48' E 030°36'0 0.4
2017-Oct-18 05:30N 36°48' E 030°36'1 2.3
2017-Oct-18 05:01N 36°48' E 030°37'2 4.3
2017-Oct-18 04:31N 36°46' E 030°38'5 9.7
2017-Oct-18 04:01N 36°41' E 030°39'510.0
2017-Oct-18 03:31N 36°36' E 030°40'5 9.7
2017-Oct-18 03:01N 36°31' E 030°39'5 9.9
2017-Oct-18 02:30N 36°26' E 030°38'5 9.7
2017-Oct-18 02:01N 36°21' E 030°38'510.0
2017-Oct-18 01:31N 36°17' E 030°36'510.0
2017-Oct-18 01:00N 36°12' E 030°34'4 8.9
2017-Oct-18 00:31N 36°08' E 030°32'5 9.0
2017-Oct-17 23:59N 36°07' E 030°26'231 9.5
2017-Oct-16 23:34N 37°27' E 025°56'110.3
2017-Oct-16 23:30N 37°27' E 025°55'510.2
2017-Oct-16 23:01N 37°32' E 025°52'510.4
2017-Oct-16 22:30N 37°37' E 025°50'  
2017-Oct-12 08:05N 37°44' E 025°49'111.0
2017-Oct-12 08:00N 37°43' E 025°49'510.8
2017-Oct-12 07:31N 37°38' E 025°50'510.1
2017-Oct-12 07:00N 37°33' E 025°51'5 9.8
2017-Oct-12 06:30N 37°29' E 025°53'229 7.5
2017-Oct-10 23:59N 36°48' E 030°36'0 0.0
2017-Oct-10 23:29N 36°48' E 030°36'0 0.0
2017-Oct-10 22:59N 36°48' E 030°36'0 0.0
2017-Oct-10 22:29N 36°48' E 030°36'0 0.0
2017-Oct-10 21:59N 36°48' E 030°36'0 0.0
2017-Oct-10 21:29N 36°48' E 030°36'0 0.0
2017-Oct-10 20:59N 36°48' E 030°36'0 0.0
2017-Oct-10 20:29N 36°48' E 030°36'0 0.0
2017-Oct-10 19:59N 36°48' E 030°36'0 0.0
2017-Oct-10 19:29N 36°48' E 030°36'0 0.0
2017-Oct-10 18:59N 36°48' E 030°36'0 0.0
2017-Oct-10 18:29N 36°48' E 030°36'0 0.0
2017-Oct-10 17:59N 36°48' E 030°36'0 0.0
2017-Oct-10 17:29N 36°48' E 030°36'0 0.0
2017-Oct-10 16:59N 36°48' E 030°36'0 0.0
2017-Oct-10 16:29N 36°48' E 030°36'0 0.0
2017-Oct-10 15:59N 36°48' E 030°36'0 0.0
2017-Oct-10 15:29N 36°48' E 030°36'0 0.0
2017-Oct-10 14:59N 36°48' E 030°36'0 0.0
2017-Oct-10 13:59N 36°48' E 030°36'0 0.0
2017-Oct-10 13:29N 36°48' E 030°36'0 0.0
2017-Oct-10 12:59N 36°48' E 030°36'0 0.0
2017-Oct-10 12:29N 36°48' E 030°36'0 0.0
2017-Oct-10 11:59N 36°48' E 030°36'0 0.0
2017-Oct-10 11:29N 36°48' E 030°36'0 0.0
2017-Oct-10 10:59N 36°48' E 030°36'0 0.0
2017-Oct-10 10:29N 36°48' E 030°36'0 0.0
2017-Oct-10 09:59N 36°48' E 030°36'0 0.0
2017-Oct-10 09:29N 36°48' E 030°36'0 0.0
2017-Oct-10 08:59N 36°48' E 030°36'0 0.0
2017-Oct-10 08:29N 36°48' E 030°36'0 0.0
2017-Oct-10 07:59N 36°48' E 030°36'0 0.0
2017-Oct-10 07:29N 36°48' E 030°36'0 0.0
2017-Oct-10 06:59N 36°48' E 030°36'0 0.0
2017-Oct-10 06:29N 36°48' E 030°36'0 0.0
2017-Oct-10 05:59N 36°48' E 030°36'0 0.5
2017-Oct-10 05:31N 36°48' E 030°36'1 1.1
2017-Oct-10 05:01N 36°48' E 030°36'0 0.7
2017-Oct-10 04:28N 36°47' E 030°36'0 0.0
2017-Oct-10 03:58N 36°47' E 030°36'0 0.1
2017-Oct-10 03:28N 36°47' E 030°36'0 0.0
2017-Oct-10 02:58N 36°47' E 030°36'0 0.1
2017-Oct-10 02:28N 36°47' E 030°36'0 0.0
2017-Oct-10 01:58N 36°47' E 030°36'0 0.1
2017-Oct-10 01:28N 36°47' E 030°36'0 0.1
2017-Oct-10 00:58N 36°47' E 030°36'0 0.1
2017-Oct-10 00:28N 36°47' E 030°36'0 0.1
2017-Oct-09 23:58N 36°47' E 030°36'0 0.0
2017-Oct-09 23:28N 36°47' E 030°36'0 0.1
2017-Oct-09 22:58N 36°47' E 030°36'0 0.1
2017-Oct-09 22:28N 36°47' E 030°36'0 0.0
2017-Oct-09 21:58N 36°47' E 030°36'0 0.1
2017-Oct-09 21:28N 36°47' E 030°36'0 0.0
2017-Oct-09 20:58N 36°47' E 030°36'0 0.0
2017-Oct-09 20:28N 36°47' E 030°36'0 0.1
2017-Oct-09 19:58N 36°47' E 030°36'0 0.1
2017-Oct-09 19:28N 36°47' E 030°36'0 0.0
2017-Oct-09 18:58N 36°47' E 030°36'0 0.1
2017-Oct-09 18:28N 36°47' E 030°36'0 0.0
2017-Oct-09 17:58N 36°47' E 030°36'0 0.0
2017-Oct-09 17:28N 36°47' E 030°36'1 3.1
2017-Oct-09 17:01N 36°47' E 030°37'510.6
2017-Oct-09 16:31N 36°44' E 030°43'611.8
2017-Oct-09 16:01N 36°42' E 030°50'611.8
2017-Oct-09 15:30N 36°39' E 030°57'611.9
2017-Oct-09 15:00N 36°37' E 031°04'611.8
2017-Oct-09 14:28N 36°34' E 031°10'  
Track history (hours):
 
Tides and Currents Weather Stations Pressure Air Temp Water Temp Dewpoint Dewpoint Depression Visibility Wind Speed Wind Dir Waves Ship Positions

Kuzey Ekim

Last reported at 2017-Oct-18 19:59 UTC. Time now 2017-Oct-18 20:31 UTC.
Position N 36°48' E 030°36'.

Length 150 m; draft 6 m.

Type: Tanker. MMSI: 271044024.

Date/timePositionNaut miles runAvg speedWind from/ knotsBaromVisibWave heightAir tempDewpointWater temp
2017-Oct-18 19:59N 36°48' E 030°36'0 0.0
2017-Oct-18 19:29N 36°48' E 030°36'0 0.0
2017-Oct-18 18:59N 36°48' E 030°36'0 0.0
2017-Oct-18 18:29N 36°48' E 030°36'0 0.0
2017-Oct-18 17:59N 36°48' E 030°36'0 0.0
2017-Oct-18 17:29N 36°48' E 030°36'0 0.0
2017-Oct-18 16:59N 36°48' E 030°36'0 0.0
2017-Oct-18 16:29N 36°48' E 030°36'0 0.0
2017-Oct-18 15:59N 36°48' E 030°36'0 0.0
2017-Oct-18 15:29N 36°48' E 030°36'0 0.0
2017-Oct-18 14:59N 36°48' E 030°36'0 0.0
2017-Oct-18 13:59N 36°48' E 030°36'0 0.0
2017-Oct-18 13:29N 36°48' E 030°36'0 0.0
2017-Oct-18 12:59N 36°48' E 030°36'0 0.0
2017-Oct-18 12:29N 36°48' E 030°36'0 0.0
2017-Oct-18 11:59N 36°48' E 030°36'0 0.0
2017-Oct-18 11:29N 36°48' E 030°36'0 0.0
2017-Oct-18 10:59N 36°48' E 030°36'0 0.0
2017-Oct-18 10:29N 36°48' E 030°36'0 0.0
2017-Oct-18 09:59N 36°48' E 030°36'0 0.0
2017-Oct-18 09:29N 36°48' E 030°36'0 0.0
2017-Oct-18 08:59N 36°48' E 030°36'0 0.0
2017-Oct-18 08:29N 36°48' E 030°36'0 0.0
2017-Oct-18 07:59N 36°48' E 030°36'0 0.0
2017-Oct-18 07:29N 36°48' E 030°36'0 0.0
2017-Oct-18 06:59N 36°48' E 030°36'0 0.0
2017-Oct-18 06:29N 36°48' E 030°36'0 0.0
2017-Oct-18 05:59N 36°48' E 030°36'0 0.4
2017-Oct-18 05:30N 36°48' E 030°36'1 2.3
2017-Oct-18 05:01N 36°48' E 030°37'2 4.3
2017-Oct-18 04:31N 36°46' E 030°38'5 9.7
2017-Oct-18 04:01N 36°41' E 030°39'510.0
2017-Oct-18 03:31N 36°36' E 030°40'5 9.7
2017-Oct-18 03:01N 36°31' E 030°39'5 9.9
2017-Oct-18 02:30N 36°26' E 030°38'5 9.7
2017-Oct-18 02:01N 36°21' E 030°38'510.0
2017-Oct-18 01:31N 36°17' E 030°36'510.0
2017-Oct-18 01:00N 36°12' E 030°34'4 8.9
2017-Oct-18 00:31N 36°08' E 030°32'5 9.0
2017-Oct-17 23:59N 36°07' E 030°26'231 9.5
2017-Oct-16 23:34N 37°27' E 025°56'110.3
2017-Oct-16 23:30N 37°27' E 025°55'510.2
2017-Oct-16 23:01N 37°32' E 025°52'510.4
2017-Oct-16 22:30N 37°37' E 025°50'  
2017-Oct-12 08:05N 37°44' E 025°49'111.0
2017-Oct-12 08:00N 37°43' E 025°49'510.8
2017-Oct-12 07:31N 37°38' E 025°50'510.1
2017-Oct-12 07:00N 37°33' E 025°51'5 9.8
2017-Oct-12 06:30N 37°29' E 025°53'229 7.5
2017-Oct-10 23:59N 36°48' E 030°36'0 0.0
2017-Oct-10 23:29N 36°48' E 030°36'0 0.0
2017-Oct-10 22:59N 36°48' E 030°36'0 0.0
2017-Oct-10 22:29N 36°48' E 030°36'0 0.0
2017-Oct-10 21:59N 36°48' E 030°36'0 0.0
2017-Oct-10 21:29N 36°48' E 030°36'0 0.0
2017-Oct-10 20:59N 36°48' E 030°36'0 0.0
2017-Oct-10 20:29N 36°48' E 030°36'0 0.0
2017-Oct-10 19:59N 36°48' E 030°36'0 0.0
2017-Oct-10 19:29N 36°48' E 030°36'0 0.0
2017-Oct-10 18:59N 36°48' E 030°36'0 0.0
2017-Oct-10 18:29N 36°48' E 030°36'0 0.0
2017-Oct-10 17:59N 36°48' E 030°36'0 0.0
2017-Oct-10 17:29N 36°48' E 030°36'0 0.0
2017-Oct-10 16:59N 36°48' E 030°36'0 0.0
2017-Oct-10 16:29N 36°48' E 030°36'0 0.0
2017-Oct-10 15:59N 36°48' E 030°36'0 0.0
2017-Oct-10 15:29N 36°48' E 030°36'0 0.0
2017-Oct-10 14:59N 36°48' E 030°36'0 0.0
2017-Oct-10 13:59N 36°48' E 030°36'0 0.0
2017-Oct-10 13:29N 36°48' E 030°36'0 0.0
2017-Oct-10 12:59N 36°48' E 030°36'0 0.0
2017-Oct-10 12:29N 36°48' E 030°36'0 0.0
2017-Oct-10 11:59N 36°48' E 030°36'0 0.0
2017-Oct-10 11:29N 36°48' E 030°36'0 0.0
2017-Oct-10 10:59N 36°48' E 030°36'0 0.0
2017-Oct-10 10:29N 36°48' E 030°36'0 0.0
2017-Oct-10 09:59N 36°48' E 030°36'0 0.0
2017-Oct-10 09:29N 36°48' E 030°36'0 0.0
2017-Oct-10 08:59N 36°48' E 030°36'0 0.0
2017-Oct-10 08:29N 36°48' E 030°36'0 0.0
2017-Oct-10 07:59N 36°48' E 030°36'0 0.0
2017-Oct-10 07:29N 36°48' E 030°36'0 0.0
2017-Oct-10 06:59N 36°48' E 030°36'0 0.0
2017-Oct-10 06:29N 36°48' E 030°36'0 0.0
2017-Oct-10 05:59N 36°48' E 030°36'0 0.5
2017-Oct-10 05:31N 36°48' E 030°36'1 1.1
2017-Oct-10 05:01N 36°48' E 030°36'0 0.7
2017-Oct-10 04:28N 36°47' E 030°36'0 0.0
2017-Oct-10 03:58N 36°47' E 030°36'0 0.1
2017-Oct-10 03:28N 36°47' E 030°36'0 0.0
2017-Oct-10 02:58N 36°47' E 030°36'0 0.1
2017-Oct-10 02:28N 36°47' E 030°36'0 0.0
2017-Oct-10 01:58N 36°47' E 030°36'0 0.1
2017-Oct-10 01:28N 36°47' E 030°36'0 0.1
2017-Oct-10 00:58N 36°47' E 030°36'0 0.1
2017-Oct-10 00:28N 36°47' E 030°36'0 0.1
2017-Oct-09 23:58N 36°47' E 030°36'0 0.0
2017-Oct-09 23:28N 36°47' E 030°36'0 0.1
2017-Oct-09 22:58N 36°47' E 030°36'0 0.1
2017-Oct-09 22:28N 36°47' E 030°36'0 0.0
2017-Oct-09 21:58N 36°47' E 030°36'0 0.1
2017-Oct-09 21:28N 36°47' E 030°36'0 0.0
2017-Oct-09 20:58N 36°47' E 030°36'0 0.0
2017-Oct-09 20:28N 36°47' E 030°36'0 0.1
2017-Oct-09 19:58N 36°47' E 030°36'0 0.1
2017-Oct-09 19:28N 36°47' E 030°36'0 0.0
2017-Oct-09 18:58N 36°47' E 030°36'0 0.1
2017-Oct-09 18:28N 36°47' E 030°36'0 0.0
2017-Oct-09 17:58N 36°47' E 030°36'0 0.0
2017-Oct-09 17:28N 36°47' E 030°36'1 3.1
2017-Oct-09 17:01N 36°47' E 030°37'510.6
2017-Oct-09 16:31N 36°44' E 030°43'611.8
2017-Oct-09 16:01N 36°42' E 030°50'611.8
2017-Oct-09 15:30N 36°39' E 030°57'611.9
2017-Oct-09 15:00N 36°37' E 031°04'611.8
2017-Oct-09 14:28N 36°34' E 031°10'  

Dump ship's entire track history